Terminal Aerodrome Forecast
Issued by NWS

Home | Current Version | Previous Version | Text Only | Print | Product List | Glossary On
Versions: 1 2 3 4 5 6 7 8 9 10 11 12 13 14 15 16 17 18 19 20 21 22 23 24 25 26 27 28 29 30 31 32 33 34 35 36 37 38
000
FTUS43 KGLD 262337
TAFMCK
TAF
KMCK 262337Z 2700/2724 06005KT P6SM SCT060
     FM270600 12004KT P6SM SCT250
     FM271400 15010KT P6SM BKN250
     FM271900 14012G17KT P6SM BKN070
     FM272300 14016G24KT 6SM +TSRA BKN040CB=

USA.gov is the U.S. government's official web portal to all federal, state and local government web resources and services.